createdAt,value
2022-11-27T00:01:57.969Z,102669.78
2022-11-27T00:04:24.667Z,102665.63
2022-11-27T00:06:51.303Z,102666.03
2022-11-27T00:09:19.319Z,102672.66
2022-11-27T00:11:45.899Z,102664.97
2022-11-27T00:14:13.564Z,102668.03
2022-11-27T00:16:40.713Z,102671.91
2022-11-27T00:19:07.606Z,102669.47
2022-11-27T00:21:35.595Z,102670.50
2022-11-27T00:24:05.068Z,102665.28
2022-11-27T00:26:37.829Z,102669.88
2022-11-27T00:29:05.807Z,102669.09
2022-11-27T00:31:33.723Z,102674.47
2022-11-27T00:34:03.930Z,102675.31
2022-11-27T00:36:32.556Z,102680.72
2022-11-27T00:38:59.597Z,102681.59
2022-11-27T00:41:28.159Z,102671.69
2022-11-27T00:43:56.349Z,102667.19
2022-11-27T00:46:28.339Z,102672.41
2022-11-27T00:48:55.833Z,102667.00
2022-11-27T00:51:23.999Z,102673.97
2022-11-27T00:53:51.349Z,102664.09
2022-11-27T00:56:21.194Z,102661.31
2022-11-27T00:58:47.873Z,102654.13
2022-11-27T01:01:18.633Z,102652.19
2022-11-27T01:03:45.894Z,102652.13
2022-11-27T01:06:13.352Z,102647.63
2022-11-27T01:08:39.943Z,102650.22
2022-11-27T01:11:06.723Z,102649.19
2022-11-27T01:13:35.667Z,102650.06
2022-11-27T01:16:05.160Z,102655.25
2022-11-27T01:18:33.894Z,102653.44
2022-11-27T01:21:01.088Z,102646.25
2022-11-27T01:23:28.184Z,102638.00
2022-11-27T01:25:54.875Z,102631.66
2022-11-27T01:28:23.156Z,102626.09
2022-11-27T01:30:50.498Z,102618.91
2022-11-27T01:33:17.591Z,102609.88
2022-11-27T01:35:53.421Z,102613.44
2022-11-27T01:38:20.010Z,102611.72
2022-11-27T01:40:46.582Z,102611.72
2022-11-27T01:43:14.877Z,102610.75
2022-11-27T01:45:42.217Z,102606.25
2022-11-27T01:48:12.627Z,102597.31
2022-11-27T01:50:40.101Z,102595.56
2022-11-27T01:53:13.585Z,102586.69
2022-11-27T01:55:42.730Z,102579.69
2022-11-27T01:58:12.300Z,102581.56
2022-11-27T02:00:39.949Z,102587.22
2022-11-27T02:03:06.686Z,102585.63
2022-11-27T02:05:33.327Z,102588.59
2022-11-27T02:08:05.646Z,102583.47
2022-11-27T02:10:46.555Z,102584.69
2022-11-27T02:13:17.191Z,102586.84
2022-11-27T02:15:50.781Z,102588.03
2022-11-27T02:18:24.983Z,102592.00
2022-11-27T02:21:04.855Z,102586.97
2022-11-27T02:24:10.547Z,102595.28
2022-11-27T02:27:02.085Z,102590.22
2022-11-27T02:29:32.965Z,102594.22
2022-11-27T02:32:07.084Z,102584.56
2022-11-27T02:34:38.532Z,102591.84
2022-11-27T02:37:10.613Z,102585.66
2022-11-27T02:39:44.425Z,102584.88
2022-11-27T02:42:16.489Z,102592.25
2022-11-27T02:44:49.434Z,102593.25
2022-11-27T02:47:16.289Z,102598.81
2022-11-27T02:49:43.993Z,102602.44
2022-11-27T02:52:13.169Z,102598.00
2022-11-27T02:54:42.571Z,102600.69
2022-11-27T02:57:11.805Z,102594.53
2022-11-27T02:59:41.747Z,102576.69
2022-11-27T03:02:14.299Z,102574.00
2022-11-27T03:04:46.035Z,102563.25
2022-11-27T03:07:17.558Z,102571.41
2022-11-27T03:09:47.619Z,102570.53
2022-11-27T03:12:15.846Z,102558.91
2022-11-27T03:14:43.645Z,102570.53
2022-11-27T03:17:26.154Z,102564.28
2022-11-27T03:19:56.999Z,102569.78
2022-11-27T03:22:23.916Z,102567.22
2022-11-27T03:24:50.468Z,102571.78
2022-11-27T03:27:21.395Z,102560.34
2022-11-27T03:29:51.121Z,102566.66
2022-11-27T03:32:19.776Z,102570.38
2022-11-27T03:34:47.780Z,102572.25
2022-11-27T03:37:14.793Z,102578.59
2022-11-27T03:39:42.141Z,102578.69
2022-11-27T03:42:18.826Z,102583.31
2022-11-27T03:44:52.688Z,102578.06
2022-11-27T03:47:32.169Z,102579.03
2022-11-27T03:50:17.683Z,102569.31
2022-11-27T03:52:52.157Z,102573.81
2022-11-27T03:55:27.652Z,102571.22
2022-11-27T03:58:00.335Z,102571.28
2022-11-27T04:00:30.363Z,102572.22
2022-11-27T04:02:58.334Z,102575.88
2022-11-27T04:05:24.965Z,102575.88
2022-11-27T04:07:51.550Z,102569.63
2022-11-27T04:10:18.302Z,102569.69
2022-11-27T04:12:44.904Z,102568.06
2022-11-27T04:15:12.282Z,102576.19
2022-11-27T04:17:38.905Z,102572.69
2022-11-27T04:20:09.078Z,102566.72
2022-11-27T04:22:35.637Z,102565.91
2022-11-27T04:25:02.284Z,102561.63
2022-11-27T04:27:28.861Z,102566.28
2022-11-27T04:29:55.495Z,102571.78
2022-11-27T04:32:22.124Z,102562.16
2022-11-27T04:34:48.695Z,102569.50
2022-11-27T04:37:16.620Z,102565.16
2022-11-27T04:39:43.240Z,102567.13
2022-11-27T04:42:09.814Z,102572.63
2022-11-27T04:44:36.428Z,102574.53
2022-11-27T04:47:03.136Z,102578.31
2022-11-27T04:49:29.787Z,102574.13
2022-11-27T04:51:56.412Z,102571.66
2022-11-27T04:54:24.505Z,102576.31
2022-11-27T04:56:51.125Z,102577.28
2022-11-27T04:59:17.973Z,102575.81
2022-11-27T05:01:44.654Z,102570.66
2022-11-27T05:04:11.234Z,102574.50
2022-11-27T05:06:37.849Z,102580.06
2022-11-27T05:09:04.418Z,102572.19
2022-11-27T05:11:32.716Z,102579.41
2022-11-27T05:13:59.499Z,102580.50
2022-11-27T05:16:26.105Z,102577.09
2022-11-27T05:18:52.678Z,102584.44
2022-11-27T05:21:19.284Z,102583.75
2022-11-27T05:23:45.851Z,102584.78
2022-11-27T05:26:12.385Z,102573.31
2022-11-27T05:28:40.379Z,102574.41
2022-11-27T05:31:07.059Z,102579.91
2022-11-27T05:33:33.659Z,102580.94
2022-11-27T05:36:00.308Z,102580.19
2022-11-27T05:38:26.883Z,102576.78
2022-11-27T05:40:53.429Z,102576.84
2022-11-27T05:43:20.043Z,102575.22
2022-11-27T05:45:48.024Z,102570.03
2022-11-27T05:48:14.643Z,102562.13
2022-11-27T05:50:41.237Z,102551.69
2022-11-27T05:53:07.828Z,102556.31
2022-11-27T05:55:34.404Z,102560.94
2022-11-27T05:58:00.963Z,102554.78
2022-11-27T06:00:27.537Z,102554.03
2022-11-27T06:02:56.295Z,102556.00
2022-11-27T06:05:23.518Z,102552.59
2022-11-27T06:07:50.115Z,102547.44
2022-11-27T06:10:16.996Z,102538.69
2022-11-27T06:12:43.515Z,102533.44
2022-11-27T06:15:10.308Z,102541.63
2022-11-27T06:17:36.885Z,102542.69
2022-11-27T06:20:06.387Z,102553.53
2022-11-27T06:22:32.944Z,102545.72
2022-11-27T06:24:59.547Z,102552.91
2022-11-27T06:27:26.163Z,102544.09
2022-11-27T06:29:52.752Z,102547.84
2022-11-27T06:32:19.386Z,102548.84
2022-11-27T06:34:45.990Z,102546.22
2022-11-27T06:37:14.137Z,102541.00
2022-11-27T06:39:40.725Z,102546.50
2022-11-27T06:42:07.381Z,102544.88
2022-11-27T06:44:33.985Z,102545.03
2022-11-27T06:47:00.606Z,102548.69
2022-11-27T06:49:27.172Z,102546.06
2022-11-27T06:51:53.779Z,102545.28
2022-11-27T06:54:21.829Z,102551.53
2022-11-27T06:56:49.925Z,102547.13
2022-11-27T06:59:16.898Z,102541.78
2022-11-27T07:01:44.231Z,102538.22
2022-11-27T07:04:11.440Z,102524.94
2022-11-27T07:06:38.358Z,102529.34
2022-11-27T07:09:06.078Z,102524.84
2022-11-27T07:11:34.501Z,102529.22
2022-11-27T07:14:03.568Z,102525.53
2022-11-27T07:16:32.720Z,102521.97
2022-11-27T07:19:01.088Z,102530.81
2022-11-27T07:21:28.216Z,102523.69
2022-11-27T07:23:55.575Z,102527.09
2022-11-27T07:26:25.043Z,102523.47
2022-11-27T07:28:53.242Z,102518.00
2022-11-27T07:31:22.795Z,102509.81
2022-11-27T07:33:50.228Z,102520.47
2022-11-27T07:36:19.155Z,102516.00
2022-11-27T07:38:46.207Z,102511.50
2022-11-27T07:41:13.402Z,102509.72
2022-11-27T07:43:41.448Z,102506.06
2022-11-27T07:46:12.638Z,102504.22
2022-11-27T07:48:39.338Z,102497.94
2022-11-27T07:51:06.705Z,102497.06
2022-11-27T07:53:36.935Z,102509.41
2022-11-27T07:56:03.918Z,102515.59
2022-11-27T07:58:30.528Z,102514.66
2022-11-27T08:00:57.264Z,102511.84
2022-11-27T08:03:25.452Z,102511.69
2022-11-27T08:05:52.334Z,102510.72
2022-11-27T08:08:18.985Z,102504.34
2022-11-27T08:10:45.542Z,102500.72
2022-11-27T08:13:12.142Z,102502.34
2022-11-27T08:15:38.713Z,102492.50
2022-11-27T08:18:05.459Z,102489.72
2022-11-27T08:20:33.667Z,102491.38
2022-11-27T08:23:03.034Z,102486.72
2022-11-27T08:25:30.105Z,102476.81
2022-11-27T08:27:56.806Z,102484.63
2022-11-27T08:30:23.474Z,102483.56
2022-11-27T08:32:50.240Z,102474.53
2022-11-27T08:35:17.182Z,102478.84
2022-11-27T08:37:45.364Z,102482.34
2022-11-27T08:40:12.213Z,102486.63
2022-11-27T08:42:38.806Z,102474.00
2022-11-27T08:45:05.992Z,102470.25
2022-11-27T08:47:32.562Z,102471.84
2022-11-27T08:49:59.209Z,102472.50
2022-11-27T08:52:25.832Z,102471.28
2022-11-27T08:54:57.580Z,102474.59
2022-11-27T08:57:25.047Z,102476.06
2022-11-27T08:59:51.690Z,102474.91
2022-11-27T09:02:18.255Z,102478.16
2022-11-27T09:04:44.911Z,102479.56
2022-11-27T09:07:11.452Z,102481.97
2022-11-27T09:09:38.096Z,102478.91
2022-11-27T09:12:06.742Z,102474.13
2022-11-27T09:14:33.303Z,102470.19
2022-11-27T09:16:59.874Z,102474.38
2022-11-27T09:19:26.532Z,102467.84
2022-11-27T09:21:53.074Z,102475.56
2022-11-27T09:24:19.698Z,102464.53
2022-11-27T09:26:46.233Z,102463.28
2022-11-27T09:29:14.273Z,102457.59
2022-11-27T09:31:40.955Z,102451.91
2022-11-27T09:34:07.601Z,102445.28
2022-11-27T09:36:34.269Z,102442.88
2022-11-27T09:39:00.824Z,102443.28
2022-11-27T09:41:44.053Z,102450.91
2022-11-27T09:44:31.275Z,102453.16
2022-11-27T09:47:01.943Z,102449.16
2022-11-27T09:49:41.519Z,102447.97
2022-11-27T09:52:15.858Z,102445.84
2022-11-27T09:54:52.268Z,102439.34
2022-11-27T09:57:24.291Z,102436.31
2022-11-27T09:59:54.150Z,102440.41
2022-11-27T10:02:26.456Z,102438.41
2022-11-27T10:07:53.661Z,102451.59
2022-11-27T10:10:33.610Z,102443.34
2022-11-27T10:13:11.075Z,102439.53
2022-11-27T10:15:49.434Z,102435.72
2022-11-27T10:18:32.457Z,102428.44
2022-11-27T10:21:07.398Z,102432.69
2022-11-27T10:23:42.849Z,102436.94
2022-11-27T10:26:17.844Z,102435.81
2022-11-27T10:28:52.301Z,102425.66
2022-11-27T10:31:31.588Z,102424.53
2022-11-27T10:34:02.005Z,102415.34
2022-11-27T10:36:32.008Z,102415.16
2022-11-27T10:39:01.178Z,102409.50
2022-11-27T10:41:49.618Z,102418.19
2022-11-27T10:44:29.834Z,102402.56
2022-11-27T10:47:02.461Z,102395.06
2022-11-27T10:49:29.401Z,102397.47
2022-11-27T10:51:56.155Z,102395.50
2022-11-27T10:54:27.430Z,102389.84
2022-11-27T10:57:13.034Z,102383.22
2022-11-27T10:59:44.241Z,102394.56
2022-11-27T11:02:28.816Z,102403.25
2022-11-27T11:05:16.569Z,102417.38
2022-11-27T11:07:42.094Z,102403.91
2022-11-27T11:10:25.700Z,102388.44
2022-11-27T11:13:13.273Z,102380.00
2022-11-27T11:15:56.052Z,102390.22
2022-11-27T11:18:25.785Z,102370.88
2022-11-27T11:20:54.693Z,102367.69
2022-11-27T11:23:25.398Z,102366.38
2022-11-27T11:25:54.888Z,102357.81
2022-11-27T11:28:22.393Z,102360.13
2022-11-27T11:31:00.276Z,102361.53
2022-11-27T11:33:28.617Z,102353.28
2022-11-27T11:36:01.303Z,102351.16
2022-11-27T11:38:31.248Z,102349.03
2022-11-27T11:41:02.455Z,102348.06
2022-11-27T11:43:30.995Z,102346.03
2022-11-27T11:46:05.938Z,102339.59
2022-11-27T11:48:35.394Z,102348.44
2022-11-27T11:51:10.792Z,102345.56
2022-11-27T11:53:39.186Z,102343.69
2022-11-27T11:56:19.425Z,102336.47
2022-11-27T11:58:53.945Z,102339.19
2022-11-27T12:01:39.550Z,102345.44
2022-11-27T12:04:30.891Z,102339.97
2022-11-27T12:07:05.390Z,102326.38
2022-11-27T12:09:44.723Z,102327.94
2022-11-27T12:12:24.102Z,102315.19
2022-11-27T12:14:54.946Z,102308.72
2022-11-27T12:17:37.813Z,102306.81
2022-11-27T12:20:17.718Z,102303.94
2022-11-27T12:23:13.453Z,102295.66
2022-11-27T12:25:49.471Z,102289.97
2022-11-27T12:28:36.086Z,102286.75
2022-11-27T12:31:09.617Z,102271.13
2022-11-27T12:33:53.513Z,102260.03
2022-11-27T12:36:29.884Z,102258.72
2022-11-27T12:39:09.502Z,102262.09
2022-11-27T12:42:05.086Z,102256.56
2022-11-27T12:44:41.442Z,102255.38
2022-11-27T12:47:13.732Z,102250.75
2022-11-27T12:49:45.063Z,102252.38
2022-11-27T12:52:18.511Z,102253.25
2022-11-27T12:54:47.858Z,102248.81
2022-11-27T12:57:20.626Z,102255.06
2022-11-27T12:59:53.867Z,102244.50
2022-11-27T13:02:36.434Z,102253.47
2022-11-27T13:05:05.908Z,102241.91
2022-11-27T13:07:41.202Z,102243.84
2022-11-27T13:10:18.309Z,102234.03
2022-11-27T13:12:52.023Z,102234.13
2022-11-27T13:15:27.469Z,102230.69
2022-11-27T13:18:02.914Z,102213.63
2022-11-27T13:20:35.431Z,102218.25
2022-11-27T13:23:03.558Z,102228.31
2022-11-27T13:25:34.764Z,102216.00
2022-11-27T13:28:04.268Z,102203.69
2022-11-27T13:30:35.540Z,102206.56
2022-11-27T13:33:04.088Z,102205.06
2022-11-27T13:35:38.275Z,102209.91
2022-11-27T13:38:09.904Z,102200.41
2022-11-27T13:40:39.893Z,102198.91
2022-11-27T13:43:20.069Z,102207.13
2022-11-27T13:45:47.041Z,102198.63
2022-11-27T13:48:29.656Z,102198.94
2022-11-27T13:50:57.298Z,102198.38
2022-11-27T13:53:32.751Z,102203.09
2022-11-27T13:55:59.657Z,102200.72
2022-11-27T13:58:31.944Z,102198.31
2022-11-27T14:00:58.972Z,102206.72
2022-11-27T14:03:27.937Z,102195.50
2022-11-27T14:05:55.880Z,102193.94
2022-11-27T14:08:26.078Z,102194.34
2022-11-27T14:10:57.841Z,102188.41
2022-11-27T14:13:37.256Z,102185.91
2022-11-27T14:16:18.202Z,102181.69
2022-11-27T14:18:50.816Z,102182.09
2022-11-27T14:21:25.714Z,102181.50
2022-11-27T14:23:53.768Z,102178.25
2022-11-27T14:26:24.124Z,102179.41
2022-11-27T14:28:54.327Z,102183.28
2022-11-27T14:31:28.495Z,102175.50
2022-11-27T14:36:42.406Z,102175.25
2022-11-27T14:39:21.309Z,102179.19
2022-11-27T14:41:57.788Z,102178.69
2022-11-27T14:44:24.577Z,102170.91
2022-11-27T14:46:52.316Z,102164.09
2022-11-27T14:49:21.198Z,102168.03
2022-11-27T14:51:48.632Z,102176.41
2022-11-27T14:54:22.096Z,102173.13
2022-11-27T14:56:48.990Z,102166.22
2022-11-27T14:59:18.880Z,102170.06
2022-11-27T15:01:46.672Z,102165.91
2022-11-27T15:04:26.903Z,102168.88
2022-11-27T15:06:55.271Z,102165.59
2022-11-27T15:09:31.838Z,102162.34
2022-11-27T15:12:03.255Z,102152.84
2022-11-27T15:14:31.622Z,102150.44
2022-11-27T15:16:58.639Z,102146.13
2022-11-27T15:19:28.713Z,102146.41
2022-11-27T15:21:55.624Z,102145.69
2022-11-27T15:24:30.828Z,102142.34
2022-11-27T15:27:07.985Z,102147.91
2022-11-27T15:29:36.903Z,102146.38
2022-11-27T15:32:04.345Z,102134.94
2022-11-27T15:34:31.123Z,102150.34
2022-11-27T15:37:00.132Z,102142.50
2022-11-27T15:39:35.303Z,102140.00
2022-11-27T15:42:03.783Z,102142.88
2022-11-27T15:44:32.226Z,102138.53
2022-11-27T15:47:01.974Z,102135.16
2022-11-27T15:49:29.204Z,102143.41
2022-11-27T15:51:56.664Z,102136.38
2022-11-27T15:54:23.349Z,102135.72
2022-11-27T15:56:50.116Z,102134.16
2022-11-27T15:59:17.285Z,102130.69
2022-11-27T16:01:43.897Z,102132.63
2022-11-27T16:04:11.913Z,102126.47
2022-11-27T16:06:38.789Z,102114.94
2022-11-27T16:09:05.993Z,102114.06
2022-11-27T16:11:33.886Z,102111.44
2022-11-27T16:14:00.519Z,102097.28
2022-11-27T16:16:27.434Z,102100.91
2022-11-27T16:18:57.152Z,102105.41
2022-11-27T16:21:29.665Z,102101.84
2022-11-27T16:23:57.761Z,102100.97
2022-11-27T16:26:24.423Z,102105.47
2022-11-27T16:28:51.006Z,102104.66
2022-11-27T16:31:17.804Z,102099.16
2022-11-27T16:33:44.553Z,102105.41
2022-11-27T16:36:13.517Z,102106.28
2022-11-27T16:38:42.418Z,102096.47
2022-11-27T16:41:11.566Z,102095.72
2022-11-27T16:43:40.604Z,102099.34
2022-11-27T16:46:08.553Z,102104.03
2022-11-27T16:48:36.849Z,102098.75
2022-11-27T16:51:05.162Z,102088.22
2022-11-27T16:53:31.792Z,102082.91
2022-11-27T16:55:59.769Z,102075.91
2022-11-27T16:58:26.403Z,102064.41
2022-11-27T17:00:53.051Z,102068.03
2022-11-27T17:03:19.851Z,102062.66
2022-11-27T17:05:51.309Z,102059.22
2022-11-27T17:08:18.298Z,102056.44
2022-11-27T17:10:44.949Z,102048.47
2022-11-27T17:13:12.892Z,102043.13
2022-11-27T17:15:40.816Z,102043.19
2022-11-27T17:18:07.691Z,102039.63
2022-11-27T17:20:34.341Z,102037.06
2022-11-27T17:23:00.932Z,102029.97
2022-11-27T17:25:29.775Z,102026.41
2022-11-27T17:27:56.336Z,102027.34
2022-11-27T17:30:24.642Z,102032.84
2022-11-27T17:32:51.247Z,102025.63
2022-11-27T17:35:17.869Z,102028.41
2022-11-27T17:37:44.486Z,102034.72
2022-11-27T17:40:11.991Z,102035.69
2022-11-27T17:42:38.641Z,102026.88
2022-11-27T17:45:05.950Z,102018.91
2022-11-27T17:47:33.927Z,102009.91
2022-11-27T17:50:00.531Z,102010.78
2022-11-27T17:52:27.101Z,102007.97
2022-11-27T17:54:53.712Z,102007.97
2022-11-27T17:57:20.326Z,101989.97
2022-11-27T17:59:46.886Z,101984.41
2022-11-27T18:02:13.602Z,101980.78
2022-11-27T18:04:41.594Z,101983.38
2022-11-27T18:07:08.134Z,101973.41
2022-11-27T18:09:34.734Z,101972.47
2022-11-27T18:12:01.311Z,101974.94
2022-11-27T18:14:27.914Z,101967.75
2022-11-27T18:16:54.657Z,101971.31
2022-11-27T18:19:21.364Z,101961.44
2022-11-27T18:21:49.291Z,101965.66
2022-11-27T18:24:24.611Z,101971.91
2022-11-27T18:27:07.739Z,101972.78
2022-11-27T18:29:35.816Z,101966.47
2022-11-27T18:32:02.575Z,101972.56
2022-11-27T18:34:29.263Z,101972.56
2022-11-27T18:36:57.386Z,101970.84
2022-11-27T18:39:24.120Z,101970.84
2022-11-27T18:41:50.865Z,101966.34
2022-11-27T18:44:17.538Z,101972.56
2022-11-27T18:46:44.111Z,101960.97
2022-11-27T18:49:10.751Z,101966.34
2022-11-27T18:51:37.425Z,101957.41
2022-11-27T18:54:05.673Z,101952.16
2022-11-27T18:56:32.278Z,101953.13
2022-11-27T18:59:00.874Z,101946.09
2022-11-27T19:01:30.194Z,101943.41
2022-11-27T19:03:59.997Z,101948.91
2022-11-27T19:06:27.273Z,101952.53
2022-11-27T19:08:53.944Z,101949.94
2022-11-27T19:11:22.992Z,101939.38
2022-11-27T19:13:50.735Z,101937.66
2022-11-27T19:16:19.690Z,101938.72
2022-11-27T19:18:46.870Z,101942.34
2022-11-27T19:21:15.893Z,101940.63
2022-11-27T19:23:43.000Z,101935.34
2022-11-27T19:26:11.378Z,101941.66
2022-11-27T19:28:40.185Z,101940.81
2022-11-27T19:31:09.254Z,101940.88
2022-11-27T19:33:36.817Z,101930.28
2022-11-27T19:36:06.122Z,101925.84
2022-11-27T19:38:32.772Z,101925.06
2022-11-27T19:40:59.350Z,101928.72
2022-11-27T19:43:25.946Z,101929.59
2022-11-27T19:45:54.014Z,101922.50
2022-11-27T19:48:23.381Z,101921.63
2022-11-27T19:50:50.844Z,101916.25
2022-11-27T19:53:17.379Z,101919.88
2022-11-27T19:55:43.945Z,101922.69
2022-11-27T19:58:10.748Z,101927.19
2022-11-27T20:00:37.409Z,101924.59
2022-11-27T20:03:05.424Z,101915.66
2022-11-27T20:05:32.019Z,101918.34
2022-11-27T20:07:58.644Z,101914.91
2022-11-27T20:10:25.559Z,101917.69
2022-11-27T20:12:52.086Z,101921.31
2022-11-27T20:15:18.782Z,101912.50
2022-11-27T20:17:45.416Z,101914.41
2022-11-27T20:20:13.616Z,101921.69
2022-11-27T20:22:40.277Z,101917.34
2022-11-27T20:25:22.937Z,101912.06
2022-11-27T20:27:49.556Z,101914.00
2022-11-27T20:30:16.297Z,101922.03
2022-11-27T20:32:42.944Z,101920.31
2022-11-27T20:35:09.750Z,101915.91
2022-11-27T20:37:37.757Z,101918.69
2022-11-27T20:40:05.571Z,101913.41
2022-11-27T20:42:32.387Z,101906.41
2022-11-27T20:44:59.542Z,101906.50
2022-11-27T20:47:26.128Z,101905.72
2022-11-27T20:49:53.037Z,101895.09
2022-11-27T20:52:19.617Z,101882.63
2022-11-27T20:54:47.679Z,101883.69
2022-11-27T20:57:14.336Z,101877.47
2022-11-27T20:59:41.318Z,101882.81
2022-11-27T21:02:10.915Z,101881.09
2022-11-27T21:04:37.581Z,101883.00
2022-11-27T21:07:04.630Z,101884.84
2022-11-27T21:09:31.221Z,101885.78
2022-11-27T21:11:59.361Z,101879.56
2022-11-27T21:14:26.007Z,101874.25
2022-11-27T21:16:52.651Z,101873.41
2022-11-27T21:19:21.860Z,101868.16
2022-11-27T21:21:49.425Z,101862.00
2022-11-27T21:24:16.678Z,101854.91
2022-11-27T21:26:43.821Z,101855.88
2022-11-27T21:29:12.630Z,101845.31
2022-11-27T21:31:45.095Z,101833.72
2022-11-27T21:34:16.029Z,101842.75
2022-11-27T21:36:42.759Z,101837.47
2022-11-27T21:39:12.399Z,101834.88
2022-11-27T21:41:39.101Z,101836.72
2022-11-27T21:44:06.204Z,101842.91
2022-11-27T21:46:34.190Z,101839.41
2022-11-27T21:49:00.948Z,101840.34
2022-11-27T21:51:28.919Z,101841.28
2022-11-27T21:53:56.475Z,101835.13
2022-11-27T21:56:24.866Z,101836.88
2022-11-27T21:58:51.809Z,101833.31
2022-11-27T22:01:20.818Z,101830.75
2022-11-27T22:03:49.020Z,101831.78
2022-11-27T22:06:16.397Z,101832.72
2022-11-27T22:08:44.175Z,101830.06
2022-11-27T22:11:13.913Z,101826.53
2022-11-27T22:13:40.770Z,101830.16
2022-11-27T22:16:09.862Z,101820.31
2022-11-27T22:18:36.692Z,101834.66
2022-11-27T22:21:05.617Z,101825.75
2022-11-27T22:23:33.531Z,101826.69
2022-11-27T22:26:01.325Z,101824.88
2022-11-27T22:28:28.324Z,101823.94
2022-11-27T22:30:55.388Z,101826.53
2022-11-27T22:33:22.118Z,101832.72
2022-11-27T22:35:48.767Z,101822.88
2022-11-27T22:38:17.178Z,101822.88
2022-11-27T22:40:44.049Z,101828.06
2022-11-27T22:43:10.873Z,101822.72
2022-11-27T22:45:38.694Z,101827.97
2022-11-27T22:48:06.265Z,101819.06
2022-11-27T22:50:32.895Z,101815.44
2022-11-27T22:52:59.488Z,101814.47
2022-11-27T22:55:27.500Z,101803.75
2022-11-27T22:57:54.059Z,101797.44
2022-11-27T23:00:21.343Z,101808.19
2022-11-27T23:02:47.991Z,101802.69
2022-11-27T23:05:14.721Z,101798.22
2022-11-27T23:07:41.445Z,101803.50
2022-11-27T23:10:08.610Z,101804.34
2022-11-27T23:12:36.539Z,101794.50
2022-11-27T23:15:03.921Z,101801.56
2022-11-27T23:17:30.578Z,101792.69
2022-11-27T23:19:57.129Z,101796.31
2022-11-27T23:22:23.721Z,101790.00
2022-11-27T23:24:50.379Z,101784.63
2022-11-27T23:27:16.947Z,101792.56
2022-11-27T23:29:44.950Z,101778.31
2022-11-27T23:32:11.709Z,101780.97
2022-11-27T23:34:38.442Z,101773.81
2022-11-27T23:37:05.071Z,101775.63
2022-11-27T23:39:31.719Z,101775.63
2022-11-27T23:41:58.373Z,101774.66
2022-11-27T23:44:24.953Z,101774.66
2022-11-27T23:46:53.357Z,101779.94
2022-11-27T23:49:19.966Z,101773.72
2022-11-27T23:51:46.560Z,101776.31
2022-11-27T23:54:13.170Z,101775.47
2022-11-27T23:56:40.282Z,101771.78
2022-11-27T23:59:07.242Z,101766.44
